Time;durP1;ratioP1;P1;durP2;ratioP2;P2;SDS_P1;SDS_P2;PMS_P1;PMS_P2;Temp;Humidity;BMP_temperature;BMP_pressure;BME280_temperature;BME280_humidity;BME280_pressure;Samples;Min_cycle;Max_cycle;Signal;HPM_P1;HPM_P2
2023/12/07 00:00:33;;;;;;;0.03;0.03;;;2.00;90.20;;;;;;5027398;28;20045;-74
2023/12/07 00:03:02;;;;;;;0.00;0.00;;;2.10;90.20;;;;;;5027708;28;20049;-74
2023/12/07 00:05:27;;;;;;;0.00;0.00;;;2.00;90.20;;;;;;5009578;28;20080;-74
2023/12/07 00:07:53;;;;;;;0.00;0.00;;;2.10;90.30;;;;;;5027039;28;20045;-74
2023/12/07 00:10:19;;;;;;;0.00;0.00;;;2.10;90.30;;;;;;5027048;28;20040;-74
2023/12/07 00:12:44;;;;;;;0.00;0.00;;;2.10;90.30;;;;;;5026662;28;20080;-74
2023/12/07 00:15:10;;;;;;;0.00;0.00;;;2.00;90.30;;;;;;5027125;28;20052;-74
2023/12/07 00:17:35;;;;;;;0.20;0.20;;;2.00;90.30;;;;;;5026967;28;20095;-74
2023/12/07 00:20:03;;;;;;;0.00;0.00;;;2.00;90.30;;;;;;5026801;28;20045;-74
2023/12/07 00:22:28;;;;;;;0.45;0.45;;;2.10;90.30;;;;;;5027032;28;20056;-74
2023/12/07 00:24:54;;;;;;;0.00;0.00;;;2.00;90.30;;;;;;5027091;28;20037;-74
2023/12/07 00:27:19;;;;;;;0.00;0.00;;;2.10;90.30;;;;;;5027124;28;20188;-74
2023/12/07 00:29:45;;;;;;;0.00;0.00;;;2.10;90.20;;;;;;5026883;28;20496;-74
2023/12/07 00:32:11;;;;;;;0.00;0.00;;;2.10;90.00;;;;;;5026509;28;20128;-74
2023/12/07 00:34:36;;;;;;;0.00;0.00;;;2.00;90.10;;;;;;5026928;28;20069;-74
2023/12/07 00:37:03;;;;;;;0.10;0.10;;;1.90;89.90;;;;;;5026713;28;20068;-74
2023/12/07 00:39:28;;;;;;;0.15;0.15;;;1.80;90.20;;;;;;5026843;28;20046;-74
2023/12/07 00:41:54;;;;;;;0.10;0.10;;;1.90;90.20;;;;;;5009295;28;20041;-74
2023/12/07 00:44:19;;;;;;;0.00;0.00;;;1.90;90.30;;;;;;5028792;28;20041;-74
2023/12/07 00:46:45;;;;;;;0.13;0.13;;;1.80;90.20;;;;;;5030938;28;20041;-74
2023/12/07 00:49:12;;;;;;;0.05;0.05;;;1.80;90.10;;;;;;5030943;28;20567;-73
2023/12/07 00:51:37;;;;;;;0.00;0.00;;;1.80;90.20;;;;;;5031209;28;20601;-74
2023/12/07 00:54:03;;;;;;;0.00;0.00;;;1.80;90.20;;;;;;5030781;28;20084;-74
2023/12/07 00:56:29;;;;;;;0.00;0.00;;;1.70;90.30;;;;;;5013042;28;20053;-73
2023/12/07 00:58:54;;;;;;;0.00;0.00;;;1.80;90.40;;;;;;5013209;28;20120;-74
2023/12/07 01:01:20;;;;;;;0.00;0.00;;;1.70;90.40;;;;;;5030512;28;20403;-74
2023/12/07 01:03:45;;;;;;;0.00;0.00;;;1.70;90.60;;;;;;5030850;28;20483;-74
2023/12/07 01:06:11;;;;;;;0.00;0.00;;;1.80;90.60;;;;;;5030051;28;20045;-74
2023/12/07 01:08:37;;;;;;;0.00;0.00;;;1.80;90.60;;;;;;5030619;28;20068;-74
2023/12/07 01:11:04;;;;;;;0.10;0.10;;;1.80;90.60;;;;;;5012705;28;20057;-74
2023/12/07 01:13:30;;;;;;;0.00;0.00;;;1.80;90.60;;;;;;5030211;28;20385;-74
2023/12/07 01:15:56;;;;;;;0.00;0.00;;;1.80;90.50;;;;;;5030421;28;20527;-74
2023/12/07 01:18:22;;;;;;;0.00;0.00;;;1.80;90.50;;;;;;5012832;28;20073;-74
2023/12/07 01:20:48;;;;;;;0.00;0.00;;;1.80;90.70;;;;;;5012665;28;20051;-74
2023/12/07 01:23:14;;;;;;;0.00;0.00;;;1.80;90.70;;;;;;5012738;28;20496;-74
2023/12/07 01:25:40;;;;;;;0.10;0.10;;;1.70;90.70;;;;;;5030319;28;20045;-74
2023/12/07 01:28:06;;;;;;;0.00;0.00;;;1.70;90.80;;;;;;5029968;28;20053;-73
2023/12/07 01:30:31;;;;;;;0.10;0.10;;;1.70;90.80;;;;;;5030208;28;20424;-74
2023/12/07 01:32:57;;;;;;;2.03;0.95;;;1.70;90.70;;;;;;5012535;28;20049;-74
2023/12/07 01:35:23;;;;;;;0.00;0.00;;;1.70;90.60;;;;;;5012008;28;20544;-74
2023/12/07 01:37:48;;;;;;;0.00;0.00;;;1.70;90.70;;;;;;5030048;28;20053;-74
2023/12/07 01:40:14;;;;;;;0.00;0.00;;;1.80;90.70;;;;;;5030187;28;20048;-74
2023/12/07 01:42:49;;;;;;;2.08;1.95;;;1.80;90.70;;;;;;5029899;28;20125;-74
2023/12/07 01:45:14;;;;;;;0.00;0.00;;;1.80;90.80;;;;;;5012243;28;20133;-74
2023/12/07 01:47:41;;;;;;;0.00;0.00;;;1.80;90.80;;;;;;5029260;28;20120;-74
2023/12/07 01:50:08;;;;;;;0.00;0.00;;;1.80;90.80;;;;;;5029802;28;20107;-74
2023/12/07 01:52:41;;;;;;;0.00;0.00;;;1.80;90.80;;;;;;5029794;28;20045;-74
2023/12/07 01:55:09;;;;;;;0.10;0.10;;;1.90;90.80;;;;;;5029573;28;20228;-74
2023/12/07 01:57:35;;;;;;;0.00;0.00;;;1.90;90.70;;;;;;5012180;28;20045;-75
2023/12/07 02:00:01;;;;;;;0.00;0.00;;;1.80;90.50;;;;;;5029635;28;21076;-74
2023/12/07 02:02:27;;;;;;;0.10;0.10;;;1.80;90.60;;;;;;5029881;28;20050;-73
2023/12/07 02:04:53;;;;;;;0.00;0.00;;;1.80;90.50;;;;;;5029331;28;20100;-74
2023/12/07 02:07:21;;;;;;;0.10;0.10;;;1.80;90.60;;;;;;5029452;28;20046;-74
2023/12/07 02:09:47;;;;;;;0.00;0.00;;;1.80;90.60;;;;;;5029327;28;20116;-74
2023/12/07 02:12:12;;;;;;;0.00;0.00;;;1.80;90.50;;;;;;5029319;28;20472;-74
2023/12/07 02:14:38;;;;;;;0.00;0.00;;;1.90;90.50;;;;;;5029140;28;20055;-74
2023/12/07 02:17:33;;;;;;;0.00;0.00;;;1.90;90.40;;;;;;5029292;28;20446;-74
2023/12/07 02:20:39;;;;;;;0.00;0.00;;;1.90;90.40;;;;;;5011690;28;20045;-74
2023/12/07 02:23:08;;;;;;;0.55;0.55;;;1.80;89.90;;;;;;5030859;28;20092;-74
2023/12/07 02:25:44;;;;;;;0.00;0.00;;;1.70;90.20;;;;;;5029985;28;20114;-74
2023/12/07 02:28:10;;;;;;;0.10;0.10;;;1.60;90.20;;;;;;5011880;28;20050;-74
2023/12/07 02:30:36;;;;;;;0.00;0.00;;;1.60;90.20;;;;;;5030306;28;20045;-74
2023/12/07 02:33:01;;;;;;;0.00;0.00;;;1.60;90.20;;;;;;5030114;28;20049;-74
2023/12/07 02:35:28;;;;;;;0.00;0.00;;;1.60;90.20;;;;;;5030146;28;20054;-74
2023/12/07 02:37:54;;;;;;;0.40;0.40;;;1.60;90.10;;;;;;5012464;28;20057;-73
2023/12/07 02:40:25;;;;;;;0.00;0.00;;;1.60;90.10;;;;;;5030116;28;20049;-73
2023/12/07 02:42:53;;;;;;;0.00;0.00;;;1.60;90.00;;;;;;5030500;28;20056;-74
2023/12/07 02:45:19;;;;;;;0.03;0.03;;;1.60;90.00;;;;;;5029752;28;20056;-74
2023/12/07 02:47:45;;;;;;;0.00;0.00;;;1.60;90.00;;;;;;5029311;28;20415;-74
2023/12/07 02:50:12;;;;;;;0.00;0.00;;;1.50;89.90;;;;;;5029144;28;20053;-74
2023/12/07 02:52:38;;;;;;;0.00;0.00;;;1.50;89.90;;;;;;5029672;28;20045;-74
2023/12/07 02:55:04;;;;;;;0.00;0.00;;;1.40;89.80;;;;;;5029321;28;20045;-74
2023/12/07 02:57:30;;;;;;;0.00;0.00;;;1.40;89.90;;;;;;5028259;28;20109;-75
2023/12/07 02:59:56;;;;;;;0.00;0.00;;;1.40;89.80;;;;;;5010908;28;20132;-74
2023/12/07 03:02:22;;;;;;;0.00;0.00;;;1.40;89.80;;;;;;5028676;28;20056;-74
2023/12/07 03:04:47;;;;;;;0.00;0.00;;;1.30;89.80;;;;;;5028632;28;20460;-74
2023/12/07 03:07:14;;;;;;;0.00;0.00;;;1.40;89.90;;;;;;5027954;28;20053;-74
2023/12/07 03:09:39;;;;;;;0.00;0.00;;;1.40;89.90;;;;;;5027963;28;20577;-74
2023/12/07 03:12:06;;;;;;;0.10;0.10;;;1.40;89.80;;;;;;5010719;28;20080;-74
2023/12/07 03:14:31;;;;;;;0.00;0.00;;;1.30;89.80;;;;;;5028182;28;20050;-74
2023/12/07 03:16:57;;;;;;;0.00;0.00;;;1.40;89.80;;;;;;5010589;28;20053;-74
2023/12/07 03:19:22;;;;;;;0.10;0.10;;;1.40;89.90;;;;;;5028461;28;20522;-74
2023/12/07 03:21:48;;;;;;;0.08;0.08;;;1.50;89.90;;;;;;5027880;28;20071;-74
2023/12/07 03:24:14;;;;;;;0.00;0.00;;;1.50;89.90;;;;;;5028483;28;20492;-74
2023/12/07 03:26:39;;;;;;;0.00;0.00;;;1.50;89.80;;;;;;5028131;28;20045;-74
2023/12/07 03:29:05;;;;;;;0.00;0.00;;;1.50;89.80;;;;;;5027480;28;20500;-74
2023/12/07 03:31:31;;;;;;;0.00;0.00;;;1.40;89.70;;;;;;5028229;28;20037;-74
2023/12/07 03:33:57;;;;;;;0.20;0.20;;;1.50;89.70;;;;;;5028232;28;20497;-74
2023/12/07 03:36:23;;;;;;;0.00;0.00;;;1.50;89.80;;;;;;5028167;28;20088;-74
2023/12/07 03:38:49;;;;;;;0.10;0.10;;;1.50;89.90;;;;;;5027967;28;20048;-74
2023/12/07 03:41:15;;;;;;;0.00;0.00;;;1.50;89.90;;;;;;5027712;28;20397;-75
2023/12/07 03:43:40;;;;;;;0.00;0.00;;;1.60;89.90;;;;;;5028075;28;20038;-74
2023/12/07 03:46:07;;;;;;;0.17;0.17;;;1.60;90.00;;;;;;5028132;28;20977;-74
2023/12/07 03:48:33;;;;;;;0.00;0.00;;;1.60;90.00;;;;;;4993950;28;20037;-74
2023/12/07 03:51:00;;;;;;;0.00;0.00;;;1.60;90.10;;;;;;5027804;28;20072;-74
2023/12/07 03:53:25;;;;;;;0.13;0.13;;;1.60;90.00;;;;;;5028148;28;20056;-74
2023/12/07 03:55:51;;;;;;;0.00;0.00;;;1.50;90.00;;;;;;5027622;28;20045;-74
2023/12/07 03:58:17;;;;;;;0.00;0.00;;;1.60;90.10;;;;;;5027310;28;20041;-74
2023/12/07 04:00:44;;;;;;;0.00;0.00;;;1.50;90.00;;;;;;5027550;28;20048;-73
2023/12/07 04:03:10;;;;;;;0.00;0.00;;;1.50;90.20;;;;;;5027699;28;20476;-74
2023/12/07 04:05:35;;;;;;;0.00;0.00;;;1.50;90.20;;;;;;5009671;28;20085;-75
2023/12/07 04:08:01;;;;;;;0.10;0.10;;;1.50;90.10;;;;;;5009395;28;20095;-74
2023/12/07 04:10:26;;;;;;;0.00;0.00;;;1.50;90.20;;;;;;5027415;28;20042;-73
2023/12/07 04:12:55;;;;;;;0.00;0.00;;;1.60;90.20;;;;;;5009147;28;20049;-74
2023/12/07 04:15:20;;;;;;;0.00;0.00;;;1.60;90.20;;;;;;5027231;28;20527;-74
2023/12/07 04:17:46;;;;;;;0.00;0.00;;;1.60;90.20;;;;;;5026704;28;20046;-74
2023/12/07 04:20:13;;;;;;;0.08;0.08;;;1.60;90.10;;;;;;5026909;28;20075;-74
2023/12/07 04:22:39;;;;;;;0.10;0.10;;;1.50;90.00;;;;;;5009113;28;20045;-73
2023/12/07 04:25:05;;;;;;;0.00;0.00;;;1.50;90.00;;;;;;5009773;28;20503;-73
2023/12/07 04:27:32;;;;;;;0.10;0.10;;;1.50;90.00;;;;;;5026846;28;20053;-74
2023/12/07 04:29:57;;;;;;;0.00;0.00;;;1.50;90.00;;;;;;5026887;28;20103;-74
2023/12/07 04:32:23;;;;;;;0.00;0.00;;;1.50;90.00;;;;;;5027150;28;20045;-74
2023/12/07 04:34:49;;;;;;;0.00;0.00;;;1.50;90.10;;;;;;5027038;28;20049;-74
2023/12/07 04:37:15;;;;;;;0.00;0.00;;;1.60;90.10;;;;;;5026829;28;20162;-74
2023/12/07 04:39:40;;;;;;;0.00;0.00;;;1.50;90.10;;;;;;5026733;28;20041;-74
2023/12/07 04:42:06;;;;;;;0.00;0.00;;;1.60;90.10;;;;;;5026992;28;20083;-74
2023/12/07 04:44:32;;;;;;;0.00;0.00;;;1.60;90.20;;;;;;5026829;28;20500;-74
2023/12/07 04:46:57;;;;;;;0.00;0.00;;;1.60;90.30;;;;;;5026611;28;20464;-74
2023/12/07 04:49:23;;;;;;;0.10;0.10;;;1.60;90.40;;;;;;5027151;28;20088;-74
2023/12/07 04:51:48;;;;;;;0.00;0.00;;;1.60;90.40;;;;;;5026608;28;20049;-74
2023/12/07 04:54:14;;;;;;;0.00;0.00;;;1.60;90.40;;;;;;5026954;28;20053;-74
2023/12/07 04:56:43;;;;;;;0.00;0.00;;;1.60;90.30;;;;;;5027032;28;20202;-74
2023/12/07 04:59:12;;;;;;;0.00;0.00;;;1.60;90.30;;;;;;5026785;28;20099;-74
2023/12/07 05:01:37;;;;;;;0.00;0.00;;;1.60;90.30;;;;;;5026774;28;20080;-74
2023/12/07 05:04:04;;;;;;;0.00;0.00;;;1.60;90.30;;;;;;5009366;28;20080;-74
2023/12/07 05:06:32;;;;;;;0.10;0.10;;;1.60;90.30;;;;;;5026604;28;20045;-74
2023/12/07 05:08:58;;;;;;;0.00;0.00;;;1.60;90.20;;;;;;5009288;28;20077;-74
2023/12/07 05:11:24;;;;;;;0.10;0.10;;;1.60;90.20;;;;;;5008756;28;20087;-73
2023/12/07 05:13:49;;;;;;;0.00;0.00;;;1.60;90.20;;;;;;5026943;28;20045;-75
2023/12/07 05:16:15;;;;;;;0.00;0.00;;;1.50;90.10;;;;;;5026742;28;20045;-74
2023/12/07 05:18:41;;;;;;;0.57;0.57;;;1.50;90.10;;;;;;5026665;28;20065;-74
2023/12/07 05:21:07;;;;;;;0.00;0.00;;;1.50;90.10;;;;;;5026493;28;20429;-74
2023/12/07 05:23:33;;;;;;;0.00;0.00;;;1.60;90.10;;;;;;5026445;28;20472;-74
2023/12/07 05:25:59;;;;;;;0.00;0.00;;;1.50;90.00;;;;;;5026516;28;20512;-74
2023/12/07 05:28:26;;;;;;;0.00;0.00;;;1.50;89.90;;;;;;5027479;28;20060;-74
2023/12/07 05:30:51;;;;;;;0.10;0.10;;;1.40;89.80;;;;;;5028889;28;20099;-74
2023/12/07 05:33:19;;;;;;;0.00;0.00;;;1.40;89.80;;;;;;5030204;28;20045;-74
2023/12/07 05:35:45;;;;;;;0.00;0.00;;;1.30;89.80;;;;;;5030091;28;20072;-74
2023/12/07 05:38:11;;;;;;;0.08;0.08;;;1.30;90.00;;;;;;5030536;28;20042;-74
2023/12/07 05:40:37;;;;;;;0.00;0.00;;;1.30;90.10;;;;;;5029632;28;20045;-74
2023/12/07 05:43:03;;;;;;;0.00;0.00;;;1.40;90.20;;;;;;5012544;28;20049;-74
2023/12/07 05:45:29;;;;;;;0.00;0.00;;;1.30;90.30;;;;;;5030177;28;20057;-74
2023/12/07 05:47:54;;;;;;;0.15;0.15;;;1.40;90.40;;;;;;5029943;28;20046;-74
2023/12/07 05:50:20;;;;;;;0.10;0.10;;;1.40;90.40;;;;;;5029927;28;20057;-74
2023/12/07 05:52:46;;;;;;;0.00;0.00;;;1.50;90.50;;;;;;5029726;28;20045;-74
2023/12/07 05:55:12;;;;;;;0.00;0.00;;;1.50;90.50;;;;;;5029723;28;20053;-74
2023/12/07 05:57:37;;;;;;;0.00;0.00;;;1.50;90.40;;;;;;5030091;28;20041;-73
2023/12/07 06:00:07;;;;;;;0.10;0.10;;;1.50;90.50;;;;;;5030223;28;20057;-74
2023/12/07 06:02:33;;;;;;;0.00;0.00;;;1.50;90.50;;;;;;5029862;28;20041;-74
2023/12/07 06:04:58;;;;;;;0.10;0.10;;;1.50;90.40;;;;;;5029188;28;20403;-74
2023/12/07 06:07:24;;;;;;;0.10;0.10;;;1.50;90.40;;;;;;5029173;28;20045;-74
2023/12/07 06:09:49;;;;;;;0.00;0.00;;;1.50;90.40;;;;;;5029365;28;20573;-74
2023/12/07 06:12:15;;;;;;;0.00;0.00;;;1.50;90.40;;;;;;5012131;28;20042;-74
2023/12/07 06:14:41;;;;;;;0.00;0.00;;;1.50;90.40;;;;;;5028825;28;20053;-74
2023/12/07 06:17:08;;;;;;;0.10;0.10;;;1.60;90.40;;;;;;5029570;28;20479;-74
2023/12/07 06:19:33;;;;;;;0.00;0.00;;;1.50;90.30;;;;;;5011386;28;20120;-73
2023/12/07 06:21:59;;;;;;;0.00;0.00;;;1.50;90.30;;;;;;5029199;28;20519;-74
2023/12/07 06:24:25;;;;;;;0.10;0.10;;;1.40;90.20;;;;;;5028900;28;20471;-74
2023/12/07 06:26:51;;;;;;;0.03;0.03;;;1.40;90.30;;;;;;5029282;28;20352;-74
2023/12/07 06:29:18;;;;;;;0.00;0.00;;;1.30;90.20;;;;;;5029100;28;20085;-74
2023/12/07 06:31:44;;;;;;;0.00;0.00;;;1.40;90.20;;;;;;5010975;28;20049;-74
2023/12/07 06:34:10;;;;;;;0.10;0.10;;;1.30;90.10;;;;;;5029151;28;20099;-74
2023/12/07 06:36:35;;;;;;;0.00;0.00;;;1.30;90.10;;;;;;5029037;28;20049;-74
2023/12/07 06:39:02;;;;;;;0.08;0.08;;;1.30;90.10;;;;;;5028487;28;20464;-74
2023/12/07 06:41:28;;;;;;;0.00;0.00;;;1.20;90.10;;;;;;5027994;28;20037;-74
2023/12/07 06:43:54;;;;;;;0.10;0.10;;;1.30;90.10;;;;;;5011082;28;20076;-74
2023/12/07 06:46:20;;;;;;;0.10;0.10;;;1.30;90.20;;;;;;5029280;28;20120;-74
2023/12/07 06:48:45;;;;;;;0.10;0.10;;;1.30;90.20;;;;;;5028285;28;20495;-74
2023/12/07 06:51:14;;;;;;;0.10;0.10;;;1.30;90.20;;;;;;5011127;28;20057;-74
2023/12/07 06:53:40;;;;;;;0.10;0.10;;;1.30;90.30;;;;;;5028455;28;20049;-74
2023/12/07 06:56:07;;;;;;;0.03;0.03;;;1.30;90.30;;;;;;5028143;28;20079;-74
2023/12/07 06:58:33;;;;;;;0.10;0.10;;;1.30;90.30;;;;;;5028608;28;20048;-74
2023/12/07 07:00:58;;;;;;;0.00;0.00;;;1.30;90.30;;;;;;5028621;28;20053;-73
2023/12/07 07:03:24;;;;;;;0.00;0.00;;;1.40;90.30;;;;;;5028903;28;20084;-73
2023/12/07 07:05:50;;;;;;;0.10;0.10;;;1.40;90.30;;;;;;5028481;28;20519;-74
2023/12/07 07:08:16;;;;;;;0.03;0.03;;;1.40;90.30;;;;;;5028032;28;20509;-73
2023/12/07 07:10:41;;;;;;;0.00;0.00;;;1.40;90.20;;;;;;5028512;28;20708;-74
2023/12/07 07:13:07;;;;;;;0.00;0.00;;;1.30;90.20;;;;;;5010852;28;20041;-74
2023/12/07 07:15:33;;;;;;;0.10;0.10;;;1.30;90.10;;;;;;5028381;28;20052;-73
2023/12/07 07:17:59;;;;;;;0.00;0.00;;;1.30;90.00;;;;;;5028471;28;20408;-74
2023/12/07 07:20:25;;;;;;;0.10;0.10;;;1.20;90.00;;;;;;5028229;28;20107;-73
2023/12/07 07:22:50;;;;;;;0.00;0.00;;;1.20;89.80;;;;;;5028140;28;20064;-74
2023/12/07 07:25:18;;;;;;;0.00;0.00;;;1.20;89.90;;;;;;5028094;28;20116;-74
2023/12/07 07:27:47;;;;;;;0.00;0.00;;;1.20;89.80;;;;;;5027641;28;20076;-74
2023/12/07 07:30:13;;;;;;;0.17;0.17;;;1.20;89.80;;;;;;5027713;28;20068;-74
2023/12/07 07:32:40;;;;;;;0.10;0.10;;;1.20;89.80;;;;;;5028184;28;20037;-74
2023/12/07 07:35:06;;;;;;;0.00;0.00;;;1.20;89.70;;;;;;5028080;28;20462;-74
2023/12/07 07:37:31;;;;;;;0.00;0.00;;;1.20;89.70;;;;;;5027395;28;20125;-74
2023/12/07 07:39:57;;;;;;;0.00;0.00;;;1.20;89.60;;;;;;5010167;28;20132;-74
2023/12/07 07:42:23;;;;;;;0.00;0.00;;;1.20;89.60;;;;;;5027976;28;20047;-73
2023/12/07 07:44:48;;;;;;;0.10;0.10;;;1.10;89.60;;;;;;5027737;28;20630;-74
2023/12/07 07:47:14;;;;;;;0.00;0.00;;;1.10;89.60;;;;;;5027962;28;20045;-74
2023/12/07 07:49:39;;;;;;;0.00;0.00;;;1.10;89.60;;;;;;5010303;28;20381;-73
2023/12/07 07:52:05;;;;;;;0.00;0.00;;;1.10;89.60;;;;;;5027348;28;20056;-73
2023/12/07 07:54:31;;;;;;;0.00;0.00;;;1.10;89.50;;;;;;5010347;28;20156;-74
2023/12/07 07:56:57;;;;;;;0.00;0.00;;;1.10;89.50;;;;;;5027669;28;20057;-74
2023/12/07 07:59:22;;;;;;;0.00;0.00;;;1.00;89.30;;;;;;5028136;28;20037;-74
2023/12/07 08:01:48;;;;;;;0.00;0.00;;;1.00;89.30;;;;;;5028064;28;20081;-73
2023/12/07 08:04:15;;;;;;;0.10;0.10;;;1.00;89.40;;;;;;5026638;28;20042;-74
2023/12/07 08:06:41;;;;;;;0.03;0.03;;;0.90;89.20;;;;;;5027224;28;20050;-74
2023/12/07 08:09:09;;;;;;;0.00;0.00;;;0.90;89.20;;;;;;5027327;28;20057;-74
2023/12/07 08:11:34;;;;;;;0.08;0.08;;;0.90;89.30;;;;;;5026745;28;20052;-74
2023/12/07 08:14:00;;;;;;;0.00;0.00;;;0.90;89.30;;;;;;5010041;28;20419;-74
2023/12/07 08:16:27;;;;;;;0.10;0.10;;;0.80;89.10;;;;;;5027009;28;20049;-73
2023/12/07 08:18:52;;;;;;;0.05;0.05;;;0.80;89.10;;;;;;5026675;28;20113;-74
2023/12/07 08:21:22;;;;;;;0.10;0.10;;;0.70;89.20;;;;;;5027060;28;20046;-73
2023/12/07 08:23:48;;;;;;;0.10;0.10;;;0.70;89.20;;;;;;4993141;28;20056;-73
2023/12/07 08:26:14;;;;;;;0.00;0.00;;;0.70;89.10;;;;;;5009337;28;20049;-74
2023/12/07 08:28:41;;;;;;;0.47;0.47;;;0.70;89.10;;;;;;5026520;28;20085;-74
2023/12/07 08:31:07;;;;;;;0.00;0.00;;;0.70;89.20;;;;;;5026870;28;20420;-73
2023/12/07 08:33:35;;;;;;;0.10;0.10;;;0.70;89.20;;;;;;5026546;28;20056;-73
2023/12/07 08:36:02;;;;;;;0.10;0.10;;;0.60;89.10;;;;;;5027503;28;20068;-74
2023/12/07 08:38:28;;;;;;;0.00;0.00;;;0.60;89.10;;;;;;5026704;28;20041;-75
2023/12/07 08:40:53;;;;;;;0.05;0.05;;;0.60;89.10;;;;;;5008604;28;20055;-73
2023/12/07 08:43:22;;;;;;;0.00;0.00;;;0.60;89.20;;;;;;5009424;28;20054;-73
2023/12/07 08:45:49;;;;;;;0.20;0.20;;;0.60;89.20;;;;;;5026938;28;20050;-74
2023/12/07 08:48:15;;;;;;;0.10;0.10;;;0.60;89.30;;;;;;5026679;28;20049;-73
2023/12/07 08:50:40;;;;;;;0.03;0.03;;;0.60;89.20;;;;;;5026736;28;20056;-74
2023/12/07 08:53:06;;;;;;;0.00;0.00;;;0.60;89.30;;;;;;5026362;28;20176;-74
2023/12/07 08:55:32;;;;;;;0.10;0.10;;;0.60;89.30;;;;;;5026788;28;20155;-74
2023/12/07 08:57:59;;;;;;;0.15;0.13;;;0.70;89.30;;;;;;5026430;28;20053;-74
2023/12/07 09:00:25;;;;;;;0.10;0.10;;;0.70;89.30;;;;;;5026573;28;20508;-74
2023/12/07 09:02:51;;;;;;;0.20;0.20;;;0.60;89.30;;;;;;5008939;28;20546;-74
2023/12/07 09:05:17;;;;;;;0.00;0.00;;;0.70;89.30;;;;;;5029042;28;20134;-74
2023/12/07 09:07:44;;;;;;;0.00;0.00;;;0.60;89.30;;;;;;5030588;28;20073;-74
2023/12/07 09:10:10;;;;;;;0.10;0.10;;;0.70;89.40;;;;;;5030459;28;20473;-74
2023/12/07 09:12:36;;;;;;;0.00;0.00;;;0.70;89.40;;;;;;5030393;28;20041;-74
2023/12/07 09:15:07;;;;;;;0.00;0.00;;;0.70;89.40;;;;;;5030329;28;20045;-74
2023/12/07 09:17:32;;;;;;;2.95;2.67;;;0.80;89.50;;;;;;5030377;28;20129;-74
2023/12/07 09:19:58;;;;;;;0.00;0.00;;;0.80;89.40;;;;;;5030231;28;20479;-74
2023/12/07 09:22:25;;;;;;;0.20;0.20;;;0.90;89.50;;;;;;5030250;28;20049;-74
2023/12/07 09:24:50;;;;;;;0.00;0.00;;;0.90;89.50;;;;;;5030193;28;20050;-73
2023/12/07 09:27:16;;;;;;;0.10;0.10;;;1.00;89.50;;;;;;5029430;28;20045;-65
2023/12/07 09:29:42;;;;;;;0.00;0.00;;;2.00;94.80;;;;;;4990061;28;20041;-73
2023/12/07 09:32:07;;;;;;;0.00;0.00;;;3.90;95.70;;;;;;5028702;28;20133;-73
2023/12/07 09:34:34;;;;;;;0.00;0.00;;;4.10;92.40;;;;;;5011373;28;20045;-74
2023/12/07 09:37:07;;;;;;;0.03;0.03;;;3.90;91.90;;;;;;5029894;28;20381;-73
2023/12/07 09:39:33;;;;;;;0.00;0.00;;;3.60;91.50;;;;;;5029958;28;20118;-73
2023/12/07 09:41:59;;;;;;;0.10;0.10;;;3.30;91.20;;;;;;5029970;28;20387;-73
2023/12/07 09:44:25;;;;;;;0.00;0.00;;;3.20;91.00;;;;;;5029698;28;20049;-73
2023/12/07 09:46:50;;;;;;;0.15;0.15;;;3.00;90.90;;;;;;5030116;28;20041;-72
2023/12/07 09:49:17;;;;;;;0.00;0.00;;;2.90;90.90;;;;;;5030216;28;20073;-73
2023/12/07 09:51:44;;;;;;;0.20;0.20;;;2.80;90.80;;;;;;5030110;28;20095;-73
2023/12/07 09:54:10;;;;;;;0.10;0.10;;;2.70;90.70;;;;;;5029900;28;20120;-73
2023/12/07 09:56:36;;;;;;;0.00;0.00;;;2.60;90.70;;;;;;5029680;28;20049;-72
2023/12/07 09:59:02;;;;;;;0.30;0.30;;;2.60;90.60;;;;;;5029716;28;20492;-73
2023/12/07 10:01:31;;;;;;;0.10;0.10;;;2.50;90.60;;;;;;5030142;28;20057;-73
2023/12/07 10:04:23;;;;;;;0.00;0.00;;;2.40;90.50;;;;;;5029623;28;20073;-73
2023/12/07 10:06:50;;;;;;;0.00;0.00;;;2.40;90.60;;;;;;5029414;28;20052;-73
2023/12/07 10:09:16;;;;;;;0.10;0.10;;;2.40;90.60;;;;;;5029702;28;20057;-73
2023/12/07 10:11:44;;;;;;;0.10;0.10;;;2.30;90.60;;;;;;5029479;28;20051;-73
2023/12/07 10:14:10;;;;;;;0.00;0.00;;;2.30;90.60;;;;;;5029503;28;20057;-73
2023/12/07 10:16:36;;;;;;;0.10;0.10;;;2.30;90.50;;;;;;5027918;28;20056;-73
2023/12/07 10:19:17;;;;;;;0.45;0.45;;;2.30;90.40;;;;;;5011660;28;20049;-73
2023/12/07 10:21:44;;;;;;;0.03;0.03;;;2.30;90.60;;;;;;5029293;28;20114;-73
2023/12/07 10:24:10;;;;;;;0.10;0.10;;;2.30;90.60;;;;;;5028720;28;20056;-73
2023/12/07 10:26:38;;;;;;;0.00;0.00;;;2.30;90.60;;;;;;5029014;28;20084;-73
2023/12/07 10:29:07;;;;;;;0.10;0.10;;;2.40;90.60;;;;;;5028889;28;20058;-73
2023/12/07 10:31:33;;;;;;;0.00;0.00;;;2.30;90.50;;;;;;5028989;28;20053;-73
2023/12/07 10:34:00;;;;;;;0.85;0.65;;;2.30;90.60;;;;;;5028817;28;20060;-73
2023/12/07 10:36:26;;;;;;;0.52;0.52;;;2.40;90.50;;;;;;5029154;28;20054;-73
2023/12/07 10:38:52;;;;;;;0.10;0.10;;;2.40;90.60;;;;;;5028424;28;20050;-73
2023/12/07 10:41:20;;;;;;;0.00;0.00;;;2.40;90.60;;;;;;5029042;28;20117;-73
2023/12/07 10:43:53;;;;;;;0.00;0.00;;;2.40;90.50;;;;;;5028817;28;20045;-73
2023/12/07 10:46:20;;;;;;;0.28;0.17;;;2.40;90.60;;;;;;5028628;28;20098;-73
2023/12/07 10:48:47;;;;;;;0.00;0.00;;;2.40;90.70;;;;;;5028437;28;20057;-73
2023/12/07 10:51:28;;;;;;;0.00;0.00;;;2.40;90.70;;;;;;5028316;28;20091;-73
2023/12/07 10:53:56;;;;;;;0.00;0.00;;;2.50;90.70;;;;;;5028615;28;20091;-73
2023/12/07 10:56:45;;;;;;;0.00;0.00;;;2.50;90.80;;;;;;5028740;28;20142;-73
2023/12/07 10:59:12;;;;;;;0.00;0.00;;;2.50;90.70;;;;;;5016592;28;20135;-73
2023/12/07 11:01:43;;;;;;;0.05;0.05;;;2.50;90.70;;;;;;5028284;28;20053;-72
2023/12/07 11:04:12;;;;;;;0.30;0.30;;;2.50;90.80;;;;;;5028836;28;20620;-73
2023/12/07 11:06:39;;;;;;;0.08;0.08;;;2.60;90.80;;;;;;4994772;28;20057;-73
2023/12/07 11:09:09;;;;;;;0.10;0.10;;;2.60;90.70;;;;;;5028182;28;20684;-73
2023/12/07 11:11:58;;;;;;;0.00;0.00;;;2.60;90.70;;;;;;5028357;28;20056;-74
2023/12/07 11:14:24;;;;;;;0.00;0.00;;;2.60;90.70;;;;;;5027731;28;20049;-73
2023/12/07 11:16:53;;;;;;;0.68;0.30;;;2.70;90.60;;;;;;5027852;28;20450;-74
2023/12/07 11:19:35;;;;;;;0.00;0.00;;;2.70;90.70;;;;;;5028439;28;20037;-73
2023/12/07 11:22:02;;;;;;;0.00;0.00;;;2.60;90.60;;;;;;5010486;28;20716;-73
2023/12/07 11:24:28;;;;;;;0.47;0.47;;;2.70;90.70;;;;;;5010566;28;20041;-73
2023/12/07 11:26:57;;;;;;;0.00;0.00;;;2.70;90.70;;;;;;5028000;28;20045;-74
2023/12/07 11:29:28;;;;;;;0.00;0.00;;;2.70;90.60;;;;;;5028142;28;20129;-73
2023/12/07 11:32:01;;;;;;;0.10;0.10;;;2.70;90.70;;;;;;5027776;28;20057;-73
2023/12/07 11:34:37;;;;;;;0.13;0.13;;;2.70;90.70;;;;;;5028006;28;20495;-74
2023/12/07 11:37:03;;;;;;;0.10;0.10;;;2.70;90.60;;;;;;5028052;28;20046;-73
2023/12/07 11:39:34;;;;;;;0.10;0.10;;;2.70;90.70;;;;;;5027361;28;20442;-74
2023/12/07 11:42:08;;;;;;;0.10;0.10;;;2.60;90.50;;;;;;5010649;28;20519;-73
2023/12/07 11:44:34;;;;;;;0.00;0.00;;;2.60;90.50;;;;;;5027728;28;20049;-73
2023/12/07 11:47:01;;;;;;;0.00;0.00;;;2.50;90.50;;;;;;5027815;28;20050;-73
2023/12/07 11:49:28;;;;;;;0.00;0.00;;;2.50;90.30;;;;;;5027737;28;20397;-73
2023/12/07 11:51:53;;;;;;;0.10;0.10;;;2.40;90.20;;;;;;5027730;28;20522;-73
2023/12/07 11:54:19;;;;;;;0.32;0.32;;;2.30;90.10;;;;;;4993579;28;20073;-73
2023/12/07 11:56:45;;;;;;;0.60;0.60;;;2.30;90.20;;;;;;5027581;28;20111;-73
2023/12/07 11:59:10;;;;;;;0.57;0.57;;;2.20;90.20;;;;;;5027726;28;20081;-74
2023/12/07 12:01:36;;;;;;;0.10;0.10;;;2.20;90.20;;;;;;5027581;28;20127;-74
2023/12/07 12:04:04;;;;;;;0.25;0.25;;;2.10;90.10;;;;;;5027600;28;20052;-73
2023/12/07 12:06:30;;;;;;;4.15;0.65;;;2.10;90.20;;;;;;5027311;28;20156;-74
2023/12/07 12:08:56;;;;;;;0.05;0.05;;;1.90;90.10;;;;;;5027245;28;20099;-73
2023/12/07 12:11:21;;;;;;;0.70;0.70;;;1.80;89.80;;;;;;5027386;28;20041;-73
2023/12/07 12:13:47;;;;;;;1.65;1.55;;;1.70;90.10;;;;;;5027366;28;20045;-73
2023/12/07 12:16:14;;;;;;;0.32;0.32;;;1.70;90.30;;;;;;5027324;28;20041;-74
2023/12/07 12:18:39;;;;;;;0.00;0.00;;;1.70;90.20;;;;;;5027350;28;20125;-73
2023/12/07 12:21:08;;;;;;;0.00;0.00;;;1.70;90.50;;;;;;5027452;28;20459;-73
2023/12/07 12:23:34;;;;;;;0.32;0.32;;;1.60;90.50;;;;;;5027014;28;20404;-74
2023/12/07 12:26:01;;;;;;;0.30;0.30;;;1.70;90.60;;;;;;5026799;28;20037;-74
2023/12/07 12:28:27;;;;;;;0.10;0.10;;;1.60;90.60;;;;;;5027112;28;20049;-73
2023/12/07 12:30:54;;;;;;;0.20;0.20;;;1.60;90.80;;;;;;5026799;28;20412;-74
2023/12/07 12:33:20;;;;;;;0.00;0.00;;;1.70;91.10;;;;;;5027108;28;20041;-73
2023/12/07 12:35:46;;;;;;;0.00;0.00;;;1.60;90.60;;;;;;5027126;28;20451;-73
2023/12/07 12:38:12;;;;;;;0.22;0.22;;;1.50;90.90;;;;;;5026755;28;20060;-73
2023/12/07 12:40:38;;;;;;;1.77;1.67;;;1.50;90.90;;;;;;5026087;28;20073;-73
2023/12/07 12:43:04;;;;;;;6.88;3.03;;;1.40;91.10;;;;;;5027065;28;20045;-73
2023/12/07 12:45:32;;;;;;;0.00;0.00;;;1.40;91.10;;;;;;5026789;28;20049;-73
2023/12/07 12:47:58;;;;;;;0.00;0.00;;;1.50;91.30;;;;;;5027045;28;20472;-74
2023/12/07 12:50:40;;;;;;;0.10;0.10;;;1.50;91.30;;;;;;5026929;28;20087;-73
2023/12/07 12:53:10;;;;;;;0.00;0.00;;;1.50;91.30;;;;;;5026481;28;20464;-73
2023/12/07 12:55:39;;;;;;;0.00;0.00;;;1.50;91.00;;;;;;5027186;28;20045;-73